sensor_id;sensor_type;location;lat;lon;timestamp;P1;durP1;ratioP1;P2;durP2;ratioP2
44165;SDS011;30476;53.468;9.826;2024-03-08T00:01:30;10.17;;;5.40;;
44165;SDS011;30476;53.468;9.826;2024-03-08T00:03:56;8.97;;;6.73;;
44165;SDS011;30476;53.468;9.826;2024-03-08T00:06:22;9.83;;;7.27;;
44165;SDS011;30476;53.468;9.826;2024-03-08T00:08:48;9.30;;;6.37;;
44165;SDS011;30476;53.468;9.826;2024-03-08T00:11:13;8.90;;;5.60;;
44165;SDS011;30476;53.468;9.826;2024-03-08T00:13:39;7.50;;;6.20;;
44165;SDS011;30476;53.468;9.826;2024-03-08T00:16:05;8.43;;;6.40;;
44165;SDS011;30476;53.468;9.826;2024-03-08T00:18:31;7.93;;;5.77;;
44165;SDS011;30476;53.468;9.826;2024-03-08T00:20:57;7.07;;;5.53;;
44165;SDS011;30476;53.468;9.826;2024-03-08T00:23:23;7.50;;;6.13;;
44165;SDS011;30476;53.468;9.826;2024-03-08T00:25:49;13.80;;;6.80;;
44165;SDS011;30476;53.468;9.826;2024-03-08T00:28:14;7.13;;;6.23;;
44165;SDS011;30476;53.468;9.826;2024-03-08T00:30:42;8.30;;;5.83;;
44165;SDS011;30476;53.468;9.826;2024-03-08T00:33:08;6.20;;;5.63;;
44165;SDS011;30476;53.468;9.826;2024-03-08T00:35:33;7.93;;;5.07;;
44165;SDS011;30476;53.468;9.826;2024-03-08T00:37:59;8.53;;;6.10;;
44165;SDS011;30476;53.468;9.826;2024-03-08T00:40:25;11.57;;;5.83;;
44165;SDS011;30476;53.468;9.826;2024-03-08T00:42:50;11.10;;;6.13;;
44165;SDS011;30476;53.468;9.826;2024-03-08T00:45:18;7.93;;;6.00;;
44165;SDS011;30476;53.468;9.826;2024-03-08T00:47:44;9.90;;;6.67;;
44165;SDS011;30476;53.468;9.826;2024-03-08T00:50:10;7.60;;;5.57;;
44165;SDS011;30476;53.468;9.826;2024-03-08T00:52:36;10.30;;;7.60;;
44165;SDS011;30476;53.468;9.826;2024-03-08T00:55:02;10.20;;;6.10;;
44165;SDS011;30476;53.468;9.826;2024-03-08T00:57:28;10.23;;;5.93;;
44165;SDS011;30476;53.468;9.826;2024-03-08T00:59:55;9.17;;;8.33;;
44165;SDS011;30476;53.468;9.826;2024-03-08T01:02:21;7.13;;;6.20;;
44165;SDS011;30476;53.468;9.826;2024-03-08T01:04:48;8.47;;;6.43;;
44165;SDS011;30476;53.468;9.826;2024-03-08T01:07:14;8.87;;;6.03;;
44165;SDS011;30476;53.468;9.826;2024-03-08T01:09:40;7.43;;;6.70;;
44165;SDS011;30476;53.468;9.826;2024-03-08T01:12:06;8.97;;;5.80;;
44165;SDS011;30476;53.468;9.826;2024-03-08T01:14:32;6.00;;;5.40;;
44165;SDS011;30476;53.468;9.826;2024-03-08T01:16:58;12.20;;;7.33;;
44165;SDS011;30476;53.468;9.826;2024-03-08T01:19:24;11.10;;;6.13;;
44165;SDS011;30476;53.468;9.826;2024-03-08T01:21:50;5.43;;;4.70;;
44165;SDS011;30476;53.468;9.826;2024-03-08T01:24:16;11.27;;;5.80;;
44165;SDS011;30476;53.468;9.826;2024-03-08T01:26:42;5.87;;;5.17;;
44165;SDS011;30476;53.468;9.826;2024-03-08T01:29:08;7.17;;;5.50;;
44165;SDS011;30476;53.468;9.826;2024-03-08T01:31:33;6.40;;;5.70;;
44165;SDS011;30476;53.468;9.826;2024-03-08T01:34:01;9.97;;;5.87;;
44165;SDS011;30476;53.468;9.826;2024-03-08T01:36:27;9.23;;;5.00;;
44165;SDS011;30476;53.468;9.826;2024-03-08T01:38:53;5.60;;;5.10;;
44165;SDS011;30476;53.468;9.826;2024-03-08T01:41:19;5.93;;;5.00;;
44165;SDS011;30476;53.468;9.826;2024-03-08T01:43:45;7.80;;;5.83;;
44165;SDS011;30476;53.468;9.826;2024-03-08T01:46:12;9.20;;;5.90;;
44165;SDS011;30476;53.468;9.826;2024-03-08T01:48:41;6.87;;;5.40;;
44165;SDS011;30476;53.468;9.826;2024-03-08T01:51:08;5.83;;;5.20;;
44165;SDS011;30476;53.468;9.826;2024-03-08T01:53:37;12.80;;;7.37;;
44165;SDS011;30476;53.468;9.826;2024-03-08T01:56:03;21.47;;;7.03;;
44165;SDS011;30476;53.468;9.826;2024-03-08T01:58:31;10.43;;;6.67;;
44165;SDS011;30476;53.468;9.826;2024-03-08T02:00:58;10.40;;;8.13;;
44165;SDS011;30476;53.468;9.826;2024-03-08T02:03:25;11.10;;;8.00;;
44165;SDS011;30476;53.468;9.826;2024-03-08T02:05:51;12.63;;;8.17;;
44165;SDS011;30476;53.468;9.826;2024-03-08T02:08:17;8.37;;;7.23;;
44165;SDS011;30476;53.468;9.826;2024-03-08T02:10:44;17.60;;;6.77;;
44165;SDS011;30476;53.468;9.826;2024-03-08T02:13:10;14.53;;;8.00;;
44165;SDS011;30476;53.468;9.826;2024-03-08T02:16:10;6.93;;;4.93;;
44165;SDS011;30476;53.468;9.826;2024-03-08T02:18:30;6.63;;;4.93;;
44165;SDS011;30476;53.468;9.826;2024-03-08T02:21:00;8.67;;;5.87;;
44165;SDS011;30476;53.468;9.826;2024-03-08T02:23:29;4.80;;;4.43;;
44165;SDS011;30476;53.468;9.826;2024-03-08T02:25:56;10.80;;;5.90;;
44165;SDS011;30476;53.468;9.826;2024-03-08T02:28:22;6.73;;;5.00;;
44165;SDS011;30476;53.468;9.826;2024-03-08T02:30:49;3.90;;;3.47;;
44165;SDS011;30476;53.468;9.826;2024-03-08T02:33:16;6.20;;;4.80;;
44165;SDS011;30476;53.468;9.826;2024-03-08T02:35:43;8.73;;;5.03;;
44165;SDS011;30476;53.468;9.826;2024-03-08T02:38:16;7.47;;;6.43;;
44165;SDS011;30476;53.468;9.826;2024-03-08T02:40:46;6.00;;;5.50;;
44165;SDS011;30476;53.468;9.826;2024-03-08T02:43:13;7.80;;;6.20;;
44165;SDS011;30476;53.468;9.826;2024-03-08T02:45:41;6.50;;;5.87;;
44165;SDS011;30476;53.468;9.826;2024-03-08T02:48:07;5.97;;;5.40;;
44165;SDS011;30476;53.468;9.826;2024-03-08T02:50:33;7.77;;;5.77;;
44165;SDS011;30476;53.468;9.826;2024-03-08T02:53:03;10.23;;;6.23;;
44165;SDS011;30476;53.468;9.826;2024-03-08T02:55:29;6.90;;;5.53;;
44165;SDS011;30476;53.468;9.826;2024-03-08T02:57:55;6.17;;;5.10;;
44165;SDS011;30476;53.468;9.826;2024-03-08T03:00:22;6.17;;;5.47;;
44165;SDS011;30476;53.468;9.826;2024-03-08T03:02:51;10.40;;;6.93;;
44165;SDS011;30476;53.468;9.826;2024-03-08T03:05:19;11.03;;;5.23;;
44165;SDS011;30476;53.468;9.826;2024-03-08T03:07:46;5.33;;;4.83;;
44165;SDS011;30476;53.468;9.826;2024-03-08T03:10:11;20.77;;;5.80;;
44165;SDS011;30476;53.468;9.826;2024-03-08T03:12:37;8.50;;;5.20;;
44165;SDS011;30476;53.468;9.826;2024-03-08T03:15:03;10.23;;;5.60;;
44165;SDS011;30476;53.468;9.826;2024-03-08T03:17:32;7.50;;;4.87;;
44165;SDS011;30476;53.468;9.826;2024-03-08T03:19:57;9.27;;;6.40;;
44165;SDS011;30476;53.468;9.826;2024-03-08T03:22:23;8.60;;;6.53;;
44165;SDS011;30476;53.468;9.826;2024-03-08T03:24:50;8.80;;;5.40;;
44165;SDS011;30476;53.468;9.826;2024-03-08T03:27:17;7.00;;;5.67;;
44165;SDS011;30476;53.468;9.826;2024-03-08T03:29:43;5.33;;;4.90;;
44165;SDS011;30476;53.468;9.826;2024-03-08T03:32:12;14.10;;;5.83;;
44165;SDS011;30476;53.468;9.826;2024-03-08T03:34:42;5.97;;;4.80;;
44165;SDS011;30476;53.468;9.826;2024-03-08T03:37:09;6.23;;;5.33;;
44165;SDS011;30476;53.468;9.826;2024-03-08T03:39:38;9.30;;;5.80;;
44165;SDS011;30476;53.468;9.826;2024-03-08T03:42:14;6.13;;;5.47;;
44165;SDS011;30476;53.468;9.826;2024-03-08T03:44:43;7.47;;;5.43;;
44165;SDS011;30476;53.468;9.826;2024-03-08T03:47:10;18.00;;;5.13;;
44165;SDS011;30476;53.468;9.826;2024-03-08T03:49:36;9.37;;;5.20;;
44165;SDS011;30476;53.468;9.826;2024-03-08T03:52:02;10.50;;;5.30;;
44165;SDS011;30476;53.468;9.826;2024-03-08T03:54:29;10.10;;;5.10;;
44165;SDS011;30476;53.468;9.826;2024-03-08T03:56:56;6.93;;;5.50;;
44165;SDS011;30476;53.468;9.826;2024-03-08T03:59:21;9.77;;;6.40;;
44165;SDS011;30476;53.468;9.826;2024-03-08T04:01:47;9.63;;;7.30;;
44165;SDS011;30476;53.468;9.826;2024-03-08T04:04:14;8.30;;;5.30;;
44165;SDS011;30476;53.468;9.826;2024-03-08T04:06:40;10.73;;;6.03;;
44165;SDS011;30476;53.468;9.826;2024-03-08T04:09:07;13.00;;;6.20;;
44165;SDS011;30476;53.468;9.826;2024-03-08T04:11:33;9.47;;;6.17;;
44165;SDS011;30476;53.468;9.826;2024-03-08T04:13:59;7.57;;;5.97;;
44165;SDS011;30476;53.468;9.826;2024-03-08T04:16:24;8.83;;;6.50;;
44165;SDS011;30476;53.468;9.826;2024-03-08T04:18:51;8.20;;;5.30;;
44165;SDS011;30476;53.468;9.826;2024-03-08T04:21:17;8.20;;;6.23;;
44165;SDS011;30476;53.468;9.826;2024-03-08T04:23:44;9.20;;;6.03;;
44165;SDS011;30476;53.468;9.826;2024-03-08T04:26:10;13.97;;;6.50;;
44165;SDS011;30476;53.468;9.826;2024-03-08T04:28:36;6.87;;;4.73;;
44165;SDS011;30476;53.468;9.826;2024-03-08T04:31:05;12.63;;;5.07;;
44165;SDS011;30476;53.468;9.826;2024-03-08T04:33:32;5.70;;;4.77;;
44165;SDS011;30476;53.468;9.826;2024-03-08T04:35:58;9.47;;;5.80;;
44165;SDS011;30476;53.468;9.826;2024-03-08T04:38:23;11.43;;;5.40;;
44165;SDS011;30476;53.468;9.826;2024-03-08T04:40:50;6.10;;;5.50;;
44165;SDS011;30476;53.468;9.826;2024-03-08T04:43:15;9.93;;;5.30;;
44165;SDS011;30476;53.468;9.826;2024-03-08T04:45:44;15.33;;;6.67;;
44165;SDS011;30476;53.468;9.826;2024-03-08T04:48:10;8.10;;;6.60;;
44165;SDS011;30476;53.468;9.826;2024-03-08T04:50:36;10.20;;;6.37;;
44165;SDS011;30476;53.468;9.826;2024-03-08T04:53:03;11.30;;;6.07;;
44165;SDS011;30476;53.468;9.826;2024-03-08T04:55:33;6.57;;;6.00;;
44165;SDS011;30476;53.468;9.826;2024-03-08T04:57:59;12.17;;;6.00;;
44165;SDS011;30476;53.468;9.826;2024-03-08T05:00:25;7.23;;;5.63;;
44165;SDS011;30476;53.468;9.826;2024-03-08T05:02:51;9.10;;;6.73;;
44165;SDS011;30476;53.468;9.826;2024-03-08T05:05:18;15.57;;;6.83;;
44165;SDS011;30476;53.468;9.826;2024-03-08T05:07:44;9.87;;;5.40;;
44165;SDS011;30476;53.468;9.826;2024-03-08T05:10:11;6.27;;;5.37;;
44165;SDS011;30476;53.468;9.826;2024-03-08T05:12:37;17.67;;;7.70;;
44165;SDS011;30476;53.468;9.826;2024-03-08T05:15:06;8.27;;;5.90;;
44165;SDS011;30476;53.468;9.826;2024-03-08T05:17:32;13.90;;;6.93;;
44165;SDS011;30476;53.468;9.826;2024-03-08T05:19:58;7.57;;;5.73;;
44165;SDS011;30476;53.468;9.826;2024-03-08T05:22:24;12.53;;;6.33;;
44165;SDS011;30476;53.468;9.826;2024-03-08T05:24:51;11.57;;;6.60;;
44165;SDS011;30476;53.468;9.826;2024-03-08T05:27:17;7.90;;;6.03;;
44165;SDS011;30476;53.468;9.826;2024-03-08T05:29:42;6.60;;;6.00;;
44165;SDS011;30476;53.468;9.826;2024-03-08T05:32:08;12.10;;;6.10;;
44165;SDS011;30476;53.468;9.826;2024-03-08T05:34:35;10.57;;;6.40;;
44165;SDS011;30476;53.468;9.826;2024-03-08T05:37:01;7.43;;;6.07;;
44165;SDS011;30476;53.468;9.826;2024-03-08T05:39:27;12.10;;;7.00;;
44165;SDS011;30476;53.468;9.826;2024-03-08T05:41:53;7.90;;;6.17;;
44165;SDS011;30476;53.468;9.826;2024-03-08T05:44:20;6.43;;;5.10;;
44165;SDS011;30476;53.468;9.826;2024-03-08T05:46:46;10.43;;;7.00;;
44165;SDS011;30476;53.468;9.826;2024-03-08T05:49:12;6.63;;;5.50;;
44165;SDS011;30476;53.468;9.826;2024-03-08T05:51:39;14.77;;;6.67;;
44165;SDS011;30476;53.468;9.826;2024-03-08T05:54:06;17.73;;;7.90;;
44165;SDS011;30476;53.468;9.826;2024-03-08T05:56:35;17.30;;;6.70;;
44165;SDS011;30476;53.468;9.826;2024-03-08T05:59:01;11.20;;;5.20;;
44165;SDS011;30476;53.468;9.826;2024-03-08T06:01:28;10.80;;;7.40;;
44165;SDS011;30476;53.468;9.826;2024-03-08T06:03:55;7.40;;;6.27;;
44165;SDS011;30476;53.468;9.826;2024-03-08T06:06:22;11.37;;;6.50;;
44165;SDS011;30476;53.468;9.826;2024-03-08T06:08:49;7.93;;;7.13;;
44165;SDS011;30476;53.468;9.826;2024-03-08T06:11:15;12.53;;;8.60;;
44165;SDS011;30476;53.468;9.826;2024-03-08T06:13:45;13.27;;;7.90;;
44165;SDS011;30476;53.468;9.826;2024-03-08T06:16:12;7.00;;;6.30;;
44165;SDS011;30476;53.468;9.826;2024-03-08T06:18:37;10.43;;;6.70;;
44165;SDS011;30476;53.468;9.826;2024-03-08T06:21:04;14.20;;;8.10;;
44165;SDS011;30476;53.468;9.826;2024-03-08T06:23:34;12.83;;;8.20;;
44165;SDS011;30476;53.468;9.826;2024-03-08T06:26:07;17.50;;;11.00;;
44165;SDS011;30476;53.468;9.826;2024-03-08T06:28:33;15.23;;;7.57;;
44165;SDS011;30476;53.468;9.826;2024-03-08T06:31:00;14.30;;;6.90;;
44165;SDS011;30476;53.468;9.826;2024-03-08T06:33:27;12.10;;;8.33;;
44165;SDS011;30476;53.468;9.826;2024-03-08T06:35:54;10.77;;;9.67;;
44165;SDS011;30476;53.468;9.826;2024-03-08T06:38:22;12.73;;;8.27;;
44165;SDS011;30476;53.468;9.826;2024-03-08T06:40:52;10.80;;;7.33;;
44165;SDS011;30476;53.468;9.826;2024-03-08T06:43:18;9.80;;;7.10;;
44165;SDS011;30476;53.468;9.826;2024-03-08T06:45:47;9.13;;;6.00;;
44165;SDS011;30476;53.468;9.826;2024-03-08T06:48:16;13.70;;;8.50;;
44165;SDS011;30476;53.468;9.826;2024-03-08T06:50:45;13.03;;;7.67;;
44165;SDS011;30476;53.468;9.826;2024-03-08T06:53:12;12.80;;;7.17;;
44165;SDS011;30476;53.468;9.826;2024-03-08T06:55:38;12.13;;;6.60;;
44165;SDS011;30476;53.468;9.826;2024-03-08T06:58:04;12.00;;;6.73;;
44165;SDS011;30476;53.468;9.826;2024-03-08T07:00:31;8.40;;;6.40;;
44165;SDS011;30476;53.468;9.826;2024-03-08T07:02:57;15.00;;;7.40;;
44165;SDS011;30476;53.468;9.826;2024-03-08T07:05:29;8.13;;;6.30;;
44165;SDS011;30476;53.468;9.826;2024-03-08T07:07:55;14.13;;;7.10;;
44165;SDS011;30476;53.468;9.826;2024-03-08T07:10:21;13.43;;;7.37;;
44165;SDS011;30476;53.468;9.826;2024-03-08T07:12:50;14.33;;;8.17;;
44165;SDS011;30476;53.468;9.826;2024-03-08T07:15:19;8.60;;;7.00;;
44165;SDS011;30476;53.468;9.826;2024-03-08T07:17:45;10.90;;;7.93;;
44165;SDS011;30476;53.468;9.826;2024-03-08T07:20:12;14.90;;;7.17;;
44165;SDS011;30476;53.468;9.826;2024-03-08T07:22:44;12.50;;;8.80;;
44165;SDS011;30476;53.468;9.826;2024-03-08T07:25:13;16.90;;;8.17;;
44165;SDS011;30476;53.468;9.826;2024-03-08T07:27:53;9.83;;;7.50;;
44165;SDS011;30476;53.468;9.826;2024-03-08T07:30:20;8.70;;;7.70;;
44165;SDS011;30476;53.468;9.826;2024-03-08T07:33:06;9.73;;;7.27;;
44165;SDS011;30476;53.468;9.826;2024-03-08T07:35:32;9.50;;;7.00;;
44165;SDS011;30476;53.468;9.826;2024-03-08T07:38:05;12.10;;;7.43;;
44165;SDS011;30476;53.468;9.826;2024-03-08T07:40:38;14.33;;;7.63;;
44165;SDS011;30476;53.468;9.826;2024-03-08T07:43:06;12.27;;;7.20;;
44165;SDS011;30476;53.468;9.826;2024-03-08T07:45:33;12.37;;;8.50;;
44165;SDS011;30476;53.468;9.826;2024-03-08T07:47:58;8.00;;;7.20;;
44165;SDS011;30476;53.468;9.826;2024-03-08T07:50:24;14.80;;;8.43;;
44165;SDS011;30476;53.468;9.826;2024-03-08T07:52:50;12.33;;;7.57;;
44165;SDS011;30476;53.468;9.826;2024-03-08T07:58:39;13.10;;;7.00;;
44165;SDS011;30476;53.468;9.826;2024-03-08T08:01:08;10.70;;;7.60;;
44165;SDS011;30476;53.468;9.826;2024-03-08T08:03:41;18.27;;;9.60;;
44165;SDS011;30476;53.468;9.826;2024-03-08T08:06:07;8.07;;;6.97;;
44165;SDS011;30476;53.468;9.826;2024-03-08T08:08:32;9.40;;;7.47;;
44165;SDS011;30476;53.468;9.826;2024-03-08T08:10:58;18.80;;;8.00;;
44165;SDS011;30476;53.468;9.826;2024-03-08T08:13:24;18.70;;;7.83;;
44165;SDS011;30476;53.468;9.826;2024-03-08T08:15:50;13.10;;;7.73;;
44165;SDS011;30476;53.468;9.826;2024-03-08T08:18:15;11.80;;;9.00;;
44165;SDS011;30476;53.468;9.826;2024-03-08T08:20:42;17.33;;;9.60;;
44165;SDS011;30476;53.468;9.826;2024-03-08T08:23:08;12.03;;;8.17;;
44165;SDS011;30476;53.468;9.826;2024-03-08T08:25:37;9.67;;;8.00;;
44165;SDS011;30476;53.468;9.826;2024-03-08T08:28:03;12.80;;;8.97;;
44165;SDS011;30476;53.468;9.826;2024-03-08T08:30:29;10.07;;;7.57;;
44165;SDS011;30476;53.468;9.826;2024-03-08T08:32:55;10.57;;;8.20;;
44165;SDS011;30476;53.468;9.826;2024-03-08T08:35:23;10.73;;;7.40;;
44165;SDS011;30476;53.468;9.826;2024-03-08T08:37:49;11.63;;;8.50;;
44165;SDS011;30476;53.468;9.826;2024-03-08T08:40:15;11.90;;;8.50;;
44165;SDS011;30476;53.468;9.826;2024-03-08T08:42:42;12.60;;;8.00;;
44165;SDS011;30476;53.468;9.826;2024-03-08T08:45:08;10.20;;;8.70;;
44165;SDS011;30476;53.468;9.826;2024-03-08T08:47:37;12.83;;;9.17;;
44165;SDS011;30476;53.468;9.826;2024-03-08T08:50:03;18.20;;;10.40;;
44165;SDS011;30476;53.468;9.826;2024-03-08T08:52:31;15.07;;;9.70;;
44165;SDS011;30476;53.468;9.826;2024-03-08T08:54:57;20.77;;;10.73;;
44165;SDS011;30476;53.468;9.826;2024-03-08T08:57:23;14.70;;;9.60;;
44165;SDS011;30476;53.468;9.826;2024-03-08T08:59:49;19.73;;;9.77;;
44165;SDS011;30476;53.468;9.826;2024-03-08T09:02:15;15.67;;;9.57;;
44165;SDS011;30476;53.468;9.826;2024-03-08T09:04:41;11.53;;;9.33;;
44165;SDS011;30476;53.468;9.826;2024-03-08T09:07:08;13.17;;;8.80;;
44165;SDS011;30476;53.468;9.826;2024-03-08T09:09:34;10.80;;;8.00;;
44165;SDS011;30476;53.468;9.826;2024-03-08T09:12:00;13.70;;;8.53;;
44165;SDS011;30476;53.468;9.826;2024-03-08T09:14:26;9.00;;;7.67;;
44165;SDS011;30476;53.468;9.826;2024-03-08T09:16:52;13.70;;;8.83;;
44165;SDS011;30476;53.468;9.826;2024-03-08T09:19:17;14.13;;;9.43;;
44165;SDS011;30476;53.468;9.826;2024-03-08T09:21:44;20.03;;;9.40;;
44165;SDS011;30476;53.468;9.826;2024-03-08T09:24:10;13.23;;;8.70;;
44165;SDS011;30476;53.468;9.826;2024-03-08T09:26:37;13.80;;;8.80;;
44165;SDS011;30476;53.468;9.826;2024-03-08T09:29:03;10.10;;;9.10;;
44165;SDS011;30476;53.468;9.826;2024-03-08T09:31:30;14.37;;;8.57;;
44165;SDS011;30476;53.468;9.826;2024-03-08T09:33:56;13.97;;;10.20;;
44165;SDS011;30476;53.468;9.826;2024-03-08T09:36:22;15.70;;;9.70;;
44165;SDS011;30476;53.468;9.826;2024-03-08T09:38:48;19.00;;;10.73;;
44165;SDS011;30476;53.468;9.826;2024-03-08T09:41:15;15.07;;;9.60;;
44165;SDS011;30476;53.468;9.826;2024-03-08T09:43:41;19.57;;;10.23;;
44165;SDS011;30476;53.468;9.826;2024-03-08T09:46:07;16.93;;;10.03;;
44165;SDS011;30476;53.468;9.826;2024-03-08T09:48:33;12.10;;;9.70;;
44165;SDS011;30476;53.468;9.826;2024-03-08T09:50:59;18.23;;;9.53;;
44165;SDS011;30476;53.468;9.826;2024-03-08T09:53:25;10.40;;;9.27;;
44165;SDS011;30476;53.468;9.826;2024-03-08T09:55:51;16.00;;;9.73;;
44165;SDS011;30476;53.468;9.826;2024-03-08T09:58:17;17.27;;;9.30;;
44165;SDS011;30476;53.468;9.826;2024-03-08T10:00:57;9.63;;;8.10;;
44165;SDS011;30476;53.468;9.826;2024-03-08T10:03:23;10.70;;;9.63;;
44165;SDS011;30476;53.468;9.826;2024-03-08T10:05:51;10.53;;;8.70;;
44165;SDS011;30476;53.468;9.826;2024-03-08T10:08:17;19.13;;;9.80;;
44165;SDS011;30476;53.468;9.826;2024-03-08T10:10:42;11.80;;;9.43;;
44165;SDS011;30476;53.468;9.826;2024-03-08T10:13:09;14.83;;;8.73;;
44165;SDS011;30476;53.468;9.826;2024-03-08T10:15:38;20.43;;;10.30;;
44165;SDS011;30476;53.468;9.826;2024-03-08T10:18:05;15.87;;;9.50;;
44165;SDS011;30476;53.468;9.826;2024-03-08T10:20:32;12.63;;;10.23;;
44165;SDS011;30476;53.468;9.826;2024-03-08T10:23:01;19.13;;;9.07;;
44165;SDS011;30476;53.468;9.826;2024-03-08T10:25:32;22.10;;;9.77;;
44165;SDS011;30476;53.468;9.826;2024-03-08T10:27:58;15.03;;;11.23;;
44165;SDS011;30476;53.468;9.826;2024-03-08T10:30:23;16.73;;;12.07;;
44165;SDS011;30476;53.468;9.826;2024-03-08T10:32:49;15.10;;;10.97;;
44165;SDS011;30476;53.468;9.826;2024-03-08T10:35:17;13.10;;;9.10;;
44165;SDS011;30476;53.468;9.826;2024-03-08T10:37:44;14.80;;;8.50;;
44165;SDS011;30476;53.468;9.826;2024-03-08T10:40:13;11.03;;;9.53;;
44165;SDS011;30476;53.468;9.826;2024-03-08T10:42:51;12.03;;;10.27;;
44165;SDS011;30476;53.468;9.826;2024-03-08T10:45:23;10.00;;;8.00;;
44165;SDS011;30476;53.468;9.826;2024-03-08T10:48:04;10.23;;;8.53;;
44165;SDS011;30476;53.468;9.826;2024-03-08T10:50:43;14.40;;;9.50;;
44165;SDS011;30476;53.468;9.826;2024-03-08T10:53:16;16.90;;;11.37;;
44165;SDS011;30476;53.468;9.826;2024-03-08T10:55:43;12.93;;;9.77;;
44165;SDS011;30476;53.468;9.826;2024-03-08T10:58:11;10.40;;;9.00;;
44165;SDS011;30476;53.468;9.826;2024-03-08T11:00:37;13.03;;;9.10;;
44165;SDS011;30476;53.468;9.826;2024-03-08T11:03:03;14.70;;;8.30;;
44165;SDS011;30476;53.468;9.826;2024-03-08T11:05:39;13.93;;;7.97;;
44165;SDS011;30476;53.468;9.826;2024-03-08T11:10:50;10.80;;;9.00;;
44165;SDS011;30476;53.468;9.826;2024-03-08T11:13:32;14.33;;;8.60;;
44165;SDS011;30476;53.468;9.826;2024-03-08T11:15:59;9.00;;;8.20;;
44165;SDS011;30476;53.468;9.826;2024-03-08T11:18:26;14.27;;;7.90;;
44165;SDS011;30476;53.468;9.826;2024-03-08T11:20:54;10.03;;;7.60;;
44165;SDS011;30476;53.468;9.826;2024-03-08T11:23:23;11.40;;;7.80;;
44165;SDS011;30476;53.468;9.826;2024-03-08T11:25:51;8.90;;;7.30;;
44165;SDS011;30476;53.468;9.826;2024-03-08T11:33:29;11.23;;;7.20;;
44165;SDS011;30476;53.468;9.826;2024-03-08T11:36:10;9.77;;;7.37;;
44165;SDS011;30476;53.468;9.826;2024-03-08T11:38:42;14.33;;;8.43;;
44165;SDS011;30476;53.468;9.826;2024-03-08T11:41:09;13.00;;;8.97;;
44165;SDS011;30476;53.468;9.826;2024-03-08T11:43:42;10.97;;;7.90;;
44165;SDS011;30476;53.468;9.826;2024-03-08T11:46:08;20.17;;;9.10;;
44165;SDS011;30476;53.468;9.826;2024-03-08T11:48:34;13.27;;;8.00;;
44165;SDS011;30476;53.468;9.826;2024-03-08T11:51:03;9.33;;;7.87;;
44165;SDS011;30476;53.468;9.826;2024-03-08T11:53:30;12.47;;;8.30;;
44165;SDS011;30476;53.468;9.826;2024-03-08T11:56:10;9.10;;;7.73;;
44165;SDS011;30476;53.468;9.826;2024-03-08T11:58:37;11.80;;;8.50;;
44165;SDS011;30476;53.468;9.826;2024-03-08T12:01:07;9.27;;;7.23;;
44165;SDS011;30476;53.468;9.826;2024-03-08T12:03:42;9.20;;;8.33;;
44165;SDS011;30476;53.468;9.826;2024-03-08T12:06:11;8.30;;;7.33;;
44165;SDS011;30476;53.468;9.826;2024-03-08T12:08:38;12.27;;;8.57;;
44165;SDS011;30476;53.468;9.826;2024-03-08T12:11:04;11.10;;;7.97;;
44165;SDS011;30476;53.468;9.826;2024-03-08T12:13:31;11.87;;;8.40;;
44165;SDS011;30476;53.468;9.826;2024-03-08T12:15:59;12.37;;;7.77;;
44165;SDS011;30476;53.468;9.826;2024-03-08T12:18:35;11.20;;;9.13;;
44165;SDS011;30476;53.468;9.826;2024-03-08T12:23:35;11.03;;;7.80;;
44165;SDS011;30476;53.468;9.826;2024-03-08T12:26:12;13.47;;;8.90;;
44165;SDS011;30476;53.468;9.826;2024-03-08T12:28:42;8.23;;;7.40;;
44165;SDS011;30476;53.468;9.826;2024-03-08T12:31:11;11.87;;;8.00;;
44165;SDS011;30476;53.468;9.826;2024-03-08T12:33:47;10.37;;;8.30;;
44165;SDS011;30476;53.468;9.826;2024-03-08T12:36:18;12.40;;;8.10;;
44165;SDS011;30476;53.468;9.826;2024-03-08T12:38:47;11.03;;;7.70;;
44165;SDS011;30476;53.468;9.826;2024-03-08T12:41:14;13.27;;;8.47;;
44165;SDS011;30476;53.468;9.826;2024-03-08T12:43:40;8.83;;;6.90;;
44165;SDS011;30476;53.468;9.826;2024-03-08T12:46:07;8.23;;;7.43;;
44165;SDS011;30476;53.468;9.826;2024-03-08T12:48:34;10.07;;;7.60;;
44165;SDS011;30476;53.468;9.826;2024-03-08T12:51:06;7.80;;;7.13;;
44165;SDS011;30476;53.468;9.826;2024-03-08T12:53:32;12.70;;;6.93;;
44165;SDS011;30476;53.468;9.826;2024-03-08T12:55:58;9.73;;;6.80;;
44165;SDS011;30476;53.468;9.826;2024-03-08T12:58:24;8.00;;;7.17;;
44165;SDS011;30476;53.468;9.826;2024-03-08T13:00:51;7.30;;;6.60;;
44165;SDS011;30476;53.468;9.826;2024-03-08T13:03:17;11.63;;;7.60;;
44165;SDS011;30476;53.468;9.826;2024-03-08T13:05:43;8.60;;;7.20;;
44165;SDS011;30476;53.468;9.826;2024-03-08T13:08:09;6.80;;;6.20;;
44165;SDS011;30476;53.468;9.826;2024-03-08T13:10:40;6.90;;;6.30;;
44165;SDS011;30476;53.468;9.826;2024-03-08T13:13:09;9.60;;;6.53;;
44165;SDS011;30476;53.468;9.826;2024-03-08T13:15:35;11.00;;;6.53;;
44165;SDS011;30476;53.468;9.826;2024-03-08T13:18:01;9.47;;;8.00;;
44165;SDS011;30476;53.468;9.826;2024-03-08T13:20:27;6.53;;;5.93;;
44165;SDS011;30476;53.468;9.826;2024-03-08T13:22:55;6.27;;;5.67;;
44165;SDS011;30476;53.468;9.826;2024-03-08T13:25:21;9.93;;;5.73;;
44165;SDS011;30476;53.468;9.826;2024-03-08T13:27:48;6.33;;;5.70;;
44165;SDS011;30476;53.468;9.826;2024-03-08T13:30:14;10.20;;;6.60;;
44165;SDS011;30476;53.468;9.826;2024-03-08T13:32:43;10.70;;;6.50;;
44165;SDS011;30476;53.468;9.826;2024-03-08T13:35:09;8.23;;;5.80;;
44165;SDS011;30476;53.468;9.826;2024-03-08T13:37:40;6.77;;;6.07;;
44165;SDS011;30476;53.468;9.826;2024-03-08T13:40:07;10.60;;;6.40;;
44165;SDS011;30476;53.468;9.826;2024-03-08T13:42:42;6.10;;;5.53;;
44165;SDS011;30476;53.468;9.826;2024-03-08T13:45:08;5.63;;;5.07;;
44165;SDS011;30476;53.468;9.826;2024-03-08T13:47:38;5.37;;;4.90;;
44165;SDS011;30476;53.468;9.826;2024-03-08T13:50:05;7.27;;;5.00;;
44165;SDS011;30476;53.468;9.826;2024-03-08T13:52:32;9.50;;;6.57;;
44165;SDS011;30476;53.468;9.826;2024-03-08T13:54:59;7.70;;;6.00;;
44165;SDS011;30476;53.468;9.826;2024-03-08T13:57:28;5.57;;;4.93;;
44165;SDS011;30476;53.468;9.826;2024-03-08T13:59:54;6.77;;;5.60;;
44165;SDS011;30476;53.468;9.826;2024-03-08T14:02:20;8.37;;;4.53;;
44165;SDS011;30476;53.468;9.826;2024-03-08T14:04:47;11.70;;;6.57;;
44165;SDS011;30476;53.468;9.826;2024-03-08T14:07:15;6.23;;;5.63;;
44165;SDS011;30476;53.468;9.826;2024-03-08T14:09:41;6.80;;;5.63;;
44165;SDS011;30476;53.468;9.826;2024-03-08T14:12:08;15.93;;;5.70;;
44165;SDS011;30476;53.468;9.826;2024-03-08T14:14:35;7.33;;;5.47;;
44165;SDS011;30476;53.468;9.826;2024-03-08T14:17:01;6.73;;;4.77;;
44165;SDS011;30476;53.468;9.826;2024-03-08T14:19:27;8.83;;;5.00;;
44165;SDS011;30476;53.468;9.826;2024-03-08T14:21:53;7.77;;;6.00;;
44165;SDS011;30476;53.468;9.826;2024-03-08T14:24:19;5.83;;;5.40;;
44165;SDS011;30476;53.468;9.826;2024-03-08T14:26:45;6.13;;;5.20;;
44165;SDS011;30476;53.468;9.826;2024-03-08T14:29:13;7.10;;;5.77;;
44165;SDS011;30476;53.468;9.826;2024-03-08T14:31:39;8.93;;;6.30;;
44165;SDS011;30476;53.468;9.826;2024-03-08T14:34:06;10.87;;;5.83;;
44165;SDS011;30476;53.468;9.826;2024-03-08T14:36:32;6.90;;;5.73;;
44165;SDS011;30476;53.468;9.826;2024-03-08T14:38:58;6.30;;;5.70;;
44165;SDS011;30476;53.468;9.826;2024-03-08T14:41:24;5.80;;;5.23;;
44165;SDS011;30476;53.468;9.826;2024-03-08T14:43:49;7.10;;;4.63;;
44165;SDS011;30476;53.468;9.826;2024-03-08T14:46:17;7.60;;;5.67;;
44165;SDS011;30476;53.468;9.826;2024-03-08T14:48:54;7.33;;;5.60;;
44165;SDS011;30476;53.468;9.826;2024-03-08T14:51:21;5.20;;;4.80;;
44165;SDS011;30476;53.468;9.826;2024-03-08T14:53:52;6.87;;;6.10;;
44165;SDS011;30476;53.468;9.826;2024-03-08T14:56:20;6.67;;;5.30;;